Time;durP1;ratioP1;P1;durP2;ratioP2;P2;SDS_P1;SDS_P2;PMS_P1;PMS_P2;Temp;Humidity;BMP_temperature;BMP_pressure;BME280_temperature;BME280_humidity;BME280_pressure;Samples;Min_cycle;Max_cycle;Signal;HPM_P1;HPM_P2
2020/12/07 00:01:06;;;;;;;3.53;3.20;;;;;;;3.83;95.55;94468.22;5075872;28;20183;-60
2020/12/07 00:03:32;;;;;;;3.20;2.90;;;;;;;3.80;95.59;94468.69;5075659;28;20168;-64
2020/12/07 00:05:57;;;;;;;3.73;3.17;;;;;;;4.02;95.30;94454.06;5079728;28;20425;-61
2020/12/07 00:08:22;;;;;;;3.63;3.10;;;;;;;4.00;94.99;94451.66;5095600;28;20314;-61
2020/12/07 00:10:48;;;;;;;4.37;3.43;;;;;;;3.92;94.71;94454.66;5090087;28;20202;-64
2020/12/07 00:13:13;;;;;;;3.97;3.60;;;;;;;4.14;93.98;94457.38;5075562;28;20197;-64
2020/12/07 00:15:39;;;;;;;4.37;3.97;;;;;;;4.00;94.33;94459.47;5075644;28;20166;-60
2020/12/07 00:18:04;;;;;;;4.43;4.03;;;;;;;3.98;95.02;94466.72;5075373;28;20178;-64
2020/12/07 00:20:29;;;;;;;3.93;3.63;;;;;;;3.79;96.25;94465.31;5076387;28;20252;-65
2020/12/07 00:22:56;;;;;;;4.40;4.00;;;;;;;3.80;96.27;94453.91;5075712;28;20567;-61
2020/12/07 00:25:22;;;;;;;4.90;4.50;;;;;;;3.83;95.68;94444.84;5084620;28;20176;-64
2020/12/07 00:27:47;;;;;;;4.30;4.00;;;;;;;3.90;95.10;94443.69;5095286;28;20476;-61
2020/12/07 00:30:13;;;;;;;4.13;3.83;;;;;;;3.89;95.60;94452.53;5095661;28;20200;-60
2020/12/07 00:32:38;;;;;;;4.40;3.63;;;;;;;3.86;95.67;94450.38;5095677;28;20646;-60
2020/12/07 00:35:04;;;;;;;4.23;3.83;;;;;;;4.14;94.49;94449.59;5090935;28;20217;-64
2020/12/07 00:37:29;;;;;;;4.27;3.93;;;;;;;4.36;94.27;94453.09;5074649;28;20188;-61
2020/12/07 00:39:55;;;;;;;3.63;3.33;;;;;;;4.47;92.82;94451.44;5075362;28;20423;-61
2020/12/07 00:42:20;;;;;;;4.50;4.10;;;;;;;4.59;92.33;94460.75;5075012;28;20173;-61
2020/12/07 00:44:46;;;;;;;3.80;3.50;;;;;;;4.66;91.13;94458.78;5075031;28;20177;-64
2020/12/07 00:47:11;;;;;;;4.50;3.60;;;;;;;4.83;91.10;94454.38;5074755;28;20178;-64
2020/12/07 00:49:38;;;;;;;4.50;3.73;;;;;;;4.81;90.41;94461.63;5074737;28;20190;-62
2020/12/07 00:52:04;;;;;;;3.77;3.47;;;;;;;4.46;91.40;94457.66;5074926;28;20218;-61
2020/12/07 00:54:29;;;;;;;2.93;2.73;;;;;;;4.22;92.61;94457.03;5074849;28;20886;-61
2020/12/07 00:57:00;;;;;;;4.50;3.30;;;;;;;4.11;93.29;94448.22;5074188;28;20180;-61
2020/12/07 00:59:27;;;;;;;3.30;3.10;;;;;;;4.22;93.00;94445.81;5074739;28;20221;-61
2020/12/07 01:01:53;;;;;;;4.00;3.60;;;;;;;4.26;93.47;94457.34;5075757;28;20423;-60
2020/12/07 01:04:19;;;;;;;3.27;2.77;;;;;;;4.18;93.26;94472.25;5074757;28;20413;-61
2020/12/07 01:06:45;;;;;;;3.40;3.10;;;;;;;4.46;93.07;94488.84;5074455;28;20445;-61
2020/12/07 01:09:19;;;;;;;3.13;2.80;;;;;;;4.44;92.76;94477.94;5074539;28;20445;-61
2020/12/07 01:11:45;;;;;;;2.90;2.47;;;;;;;4.65;91.37;94472.03;5074288;28;20503;-61
2020/12/07 01:14:13;;;;;;;2.97;2.70;;;;;;;4.52;91.86;94485.34;5074685;28;20907;-65
2020/12/07 01:16:40;;;;;;;2.93;2.73;;;;;;;4.58;92.24;94482.59;5075027;28;20788;-61
2020/12/07 01:19:06;;;;;;;3.40;3.00;;;;;;;4.63;91.45;94484.47;5075320;28;20457;-64
2020/12/07 01:21:33;;;;;;;2.50;2.30;;;;;;;4.34;92.56;94482.94;5074788;28;20409;-61
2020/12/07 01:23:59;;;;;;;2.90;2.60;;;;;;;4.22;92.56;94478.56;5074319;28;20404;-64
2020/12/07 01:26:25;;;;;;;2.97;2.70;;;;;;;4.00;94.20;94471.69;5074149;28;20490;-61
2020/12/07 01:28:51;;;;;;;3.70;3.17;;;;;;;4.03;94.48;94468.59;5074171;28;20502;-61
2020/12/07 01:31:17;;;;;;;3.20;2.60;;;;;;;4.19;93.57;94467.88;5074113;28;20841;-61
2020/12/07 01:33:43;;;;;;;3.53;3.00;;;;;;;3.98;94.40;94469.31;5073861;28;20755;-62
2020/12/07 01:36:09;;;;;;;4.43;3.10;;;;;;;4.16;93.70;94476.94;5073552;28;20776;-61
2020/12/07 01:38:34;;;;;;;3.17;2.70;;;;;;;4.09;94.23;94467.69;5073874;28;20408;-64
2020/12/07 01:41:00;;;;;;;2.13;2.03;;;;;;;3.88;95.73;94468.31;5086749;28;20271;-61
2020/12/07 01:43:25;;;;;;;3.33;3.03;;;;;;;3.69;96.88;94475.50;5091792;28;20169;-61
2020/12/07 01:45:50;;;;;;;3.27;2.90;;;;;;;3.77;96.60;94472.53;5094456;28;20502;-65
2020/12/07 01:48:16;;;;;;;3.57;2.90;;;;;;;3.64;96.66;94477.22;5093702;28;20178;-62
2020/12/07 01:50:41;;;;;;;3.50;3.20;;;;;;;3.89;95.73;94460.31;5078572;28;20230;-61
2020/12/07 01:53:09;;;;;;;3.10;2.80;;;;;;;3.56;97.07;94465.38;5074174;28;20684;-65
2020/12/07 01:55:34;;;;;;;3.63;3.27;;;;;;;3.33;98.92;94462.81;5073858;28;20627;-65
2020/12/07 01:58:00;;;;;;;3.77;3.47;;;;;;;3.44;98.64;94463.81;5074406;28;20442;-61
2020/12/07 02:00:25;;;;;;;3.20;2.90;;;;;;;3.45;97.95;94460.97;5073884;28;20195;-65
2020/12/07 02:02:51;;;;;;;4.57;3.40;;;;;;;3.45;98.74;94468.78;5073897;28;20169;-64
2020/12/07 02:05:17;;;;;;;5.30;4.00;;;;;;;3.51;98.63;94480.84;5076813;28;20172;-61
2020/12/07 02:07:43;;;;;;;4.10;3.07;;;;;;;3.49;98.08;94488.06;5093643;28;20266;-61
2020/12/07 02:10:09;;;;;;;3.00;2.80;;;;;;;3.38;98.79;94495.84;5093250;28;20512;-61
2020/12/07 02:12:34;;;;;;;4.53;4.03;;;;;;;3.47;99.05;94508.28;5091612;28;20656;-65
2020/12/07 02:14:59;;;;;;;3.70;3.40;;;;;;;3.64;98.19;94510.97;5093391;28;20184;-65
2020/12/07 02:17:25;;;;;;;3.47;3.20;;;;;;;3.93;97.28;94504.78;5093400;28;20203;-65
2020/12/07 02:19:50;;;;;;;4.30;3.93;;;;;;;3.88;95.94;94517.66;5081530;28;20201;-65
2020/12/07 02:22:15;;;;;;;4.40;4.00;;;;;;;3.73;96.75;94512.94;5073069;28;20185;-65
2020/12/07 02:24:41;;;;;;;5.63;4.30;;;;;;;3.73;97.50;94520.75;5073484;28;20179;-61
2020/12/07 02:27:08;;;;;;;4.10;3.80;;;;;;;3.98;96.67;94534.25;5073816;28;20556;-64
2020/12/07 02:29:33;;;;;;;4.87;4.47;;;;;;;4.04;96.40;94535.91;5073373;28;20190;-63
2020/12/07 02:32:16;;;;;;;4.67;4.27;;;;;;;4.35;94.85;94539.13;5073535;28;20409;-64
2020/12/07 02:34:43;;;;;;;4.57;4.17;;;;;;;4.44;93.78;94530.69;5073033;28;20767;-61
2020/12/07 02:37:09;;;;;;;4.30;4.00;;;;;;;4.53;92.84;94531.88;5077849;28;20427;-65
2020/12/07 02:39:35;;;;;;;4.40;4.00;;;;;;;4.62;93.22;94538.28;5073125;28;20429;-61
2020/12/07 02:42:02;;;;;;;4.43;4.07;;;;;;;4.92;91.64;94543.22;5073350;28;20459;-65
2020/12/07 02:44:28;;;;;;;4.30;3.90;;;;;;;4.96;91.33;94550.31;5073407;28;20172;-63
2020/12/07 02:46:53;;;;;;;4.70;4.30;;;;;;;4.98;90.96;94553.47;5072957;28;20419;-65
2020/12/07 02:49:19;;;;;;;4.40;4.00;;;;;;;5.00;89.90;94561.84;5072920;28;20230;-65
2020/12/07 02:51:44;;;;;;;3.90;3.50;;;;;;;4.94;90.89;94572.41;5072005;28;20538;-61
2020/12/07 02:54:10;;;;;;;7.13;3.80;;;;;;;4.96;89.85;94562.56;5071868;28;20202;-65
2020/12/07 02:56:36;;;;;;;4.47;4.07;;;;;;;4.98;89.35;94550.88;5072837;28;20238;-62
2020/12/07 02:59:01;;;;;;;4.40;3.90;;;;;;;5.05;89.99;94561.16;5072474;28;20520;-61
2020/12/07 03:01:27;;;;;;;3.70;3.40;;;;;;;4.78;90.02;94560.16;5073212;28;20181;-61
2020/12/07 03:03:52;;;;;;;3.83;3.53;;;;;;;4.73;90.86;94568.66;5073099;28;20170;-65
2020/12/07 03:06:17;;;;;;;3.97;3.67;;;;;;;4.51;91.78;94574.75;5072652;28;20168;-65
2020/12/07 03:08:43;;;;;;;3.63;3.33;;;;;;;4.69;91.66;94574.56;5072613;28;20709;-65
2020/12/07 03:11:08;;;;;;;3.60;3.30;;;;;;;4.63;90.93;94580.69;5073296;28;20171;-61
2020/12/07 03:13:34;;;;;;;3.53;3.30;;;;;;;4.25;93.46;94585.69;5072529;28;20288;-61
2020/12/07 03:15:59;;;;;;;4.13;3.73;;;;;;;4.34;93.10;94589.50;5072848;28;20178;-62
2020/12/07 03:18:24;;;;;;;3.57;3.37;;;;;;;4.22;93.31;94592.91;5072643;28;20260;-65
2020/12/07 03:20:50;;;;;;;3.80;3.50;;;;;;;4.52;92.82;94597.13;5073657;28;20190;-61
2020/12/07 03:23:15;;;;;;;3.47;3.27;;;;;;;3.96;94.25;94597.84;5076727;28;20170;-65
2020/12/07 03:25:40;;;;;;;3.87;3.57;;;;;;;4.04;94.78;94598.28;5076599;28;20168;-64
2020/12/07 03:28:06;;;;;;;4.07;3.77;;;;;;;4.31;93.86;94603.75;5075841;28;20284;-61
2020/12/07 03:30:31;;;;;;;3.87;3.47;;;;;;;4.28;93.52;94600.81;5076396;28;20544;-65
2020/12/07 03:32:56;;;;;;;4.17;3.43;;;;;;;4.26;94.10;94595.06;5076408;28;20275;-61
2020/12/07 03:35:22;;;;;;;3.33;3.10;;;;;;;4.28;93.33;94598.22;5076365;28;20173;-62
2020/12/07 03:37:47;;;;;;;3.53;3.23;;;;;;;4.41;92.97;94597.94;5076216;28;20621;-65
2020/12/07 03:40:13;;;;;;;5.40;3.70;;;;;;;4.45;92.93;94596.47;5076564;28;20303;-65
2020/12/07 03:42:38;;;;;;;5.73;4.27;;;;;;;4.48;91.91;94594.19;5075944;28;20706;-65
2020/12/07 03:45:04;;;;;;;3.90;3.60;;;;;;;4.44;92.83;94600.88;5075713;28;20193;-61
2020/12/07 03:47:29;;;;;;;4.70;3.70;;;;;;;4.57;92.42;94595.41;5076111;28;20208;-61
2020/12/07 03:49:55;;;;;;;3.93;3.63;;;;;;;4.62;91.74;94595.50;5082282;28;20549;-64
2020/12/07 03:52:20;;;;;;;4.00;3.40;;;;;;;4.10;94.28;94599.16;5096736;28;20173;-61
2020/12/07 03:54:45;;;;;;;4.43;3.67;;;;;;;4.36;93.20;94592.66;5096245;28;20207;-61
2020/12/07 03:57:11;;;;;;;4.17;3.80;;;;;;;4.32;93.00;94594.94;5089844;28;20182;-64
2020/12/07 03:59:36;;;;;;;4.03;3.73;;;;;;;4.28;93.84;94587.81;5075920;28;20204;-64
2020/12/07 04:02:02;;;;;;;3.97;3.60;;;;;;;4.12;94.20;94587.53;5075912;28;20330;-61
2020/12/07 04:04:35;;;;;;;3.60;3.30;;;;;;;4.02;94.70;94576.91;5081676;28;20178;-65
2020/12/07 04:07:00;;;;;;;3.80;3.50;;;;;;;3.76;96.38;94574.84;5075853;28;20418;-65
2020/12/07 04:09:26;;;;;;;4.93;3.03;;;;;;;3.83;96.08;94587.69;5075700;28;20492;-64
2020/12/07 04:11:51;;;;;;;3.27;2.97;;;;;;;3.89;96.31;94602.38;5075780;28;20188;-61
2020/12/07 04:14:16;;;;;;;3.13;2.83;;;;;;;3.91;96.59;94605.53;5075835;28;20196;-62
2020/12/07 04:16:42;;;;;;;3.90;3.17;;;;;;;3.94;96.14;94605.88;5075321;28;20594;-62
2020/12/07 04:19:07;;;;;;;3.23;2.93;;;;;;;3.84;96.58;94610.06;5083531;28;20206;-61
2020/12/07 04:21:33;;;;;;;3.50;3.00;;;;;;;3.66;97.86;94618.75;5075686;28;20165;-64
2020/12/07 04:23:58;;;;;;;3.13;2.83;;;;;;;3.66;97.25;94623.16;5075769;28;20176;-61
2020/12/07 04:26:23;;;;;;;3.00;2.80;;;;;;;3.75;97.79;94619.22;5075453;28;20180;-64
2020/12/07 04:28:50;;;;;;;3.13;2.93;;;;;;;3.69;97.55;94620.91;5075213;28;20243;-65
2020/12/07 04:31:15;;;;;;;2.90;2.70;;;;;;;3.66;98.00;94625.75;5076704;28;20173;-61
2020/12/07 04:33:40;;;;;;;3.83;3.07;;;;;;;3.63;97.48;94628.78;5074683;28;20787;-64
2020/12/07 04:36:06;;;;;;;4.20;3.40;;;;;;;3.76;97.32;94631.97;5075406;28;20623;-65
2020/12/07 04:38:32;;;;;;;3.53;3.23;;;;;;;3.65;97.92;94627.56;5090497;28;20191;-64
2020/12/07 04:40:58;;;;;;;4.70;4.00;;;;;;;3.80;97.44;94629.69;5083062;28;20208;-65
2020/12/07 04:43:24;;;;;;;4.73;3.53;;;;;;;3.90;96.68;94632.50;5075253;28;20406;-65
2020/12/07 04:45:49;;;;;;;4.70;4.30;;;;;;;4.00;95.94;94627.53;5083420;28;20635;-64
2020/12/07 04:48:16;;;;;;;4.60;4.10;;;;;;;4.19;95.80;94637.56;5085321;28;20427;-64
2020/12/07 04:50:42;;;;;;;4.77;4.37;;;;;;;4.25;95.24;94630.66;5075206;28;20194;-65
2020/12/07 04:53:08;;;;;;;6.37;3.57;;;;;;;4.13;95.66;94640.31;5075060;28;20818;-61
2020/12/07 04:55:34;;;;;;;4.43;4.03;;;;;;;4.20;96.10;94636.53;5074989;28;20638;-61
2020/12/07 04:57:59;;;;;;;5.40;4.00;;;;;;;4.15;94.77;94644.22;5074204;28;20429;-62
2020/12/07 05:00:30;;;;;;;4.53;3.70;;;;;;;4.06;96.18;94634.41;5080237;28;20248;-64
2020/12/07 05:02:56;;;;;;;4.80;4.03;;;;;;;4.12;96.21;94625.72;5074765;28;20180;-60
2020/12/07 05:05:23;;;;;;;4.07;3.70;;;;;;;4.32;96.39;94641.72;5074502;28;20434;-62
2020/12/07 05:07:50;;;;;;;3.87;3.53;;;;;;;4.39;94.57;94628.59;5074107;28;20184;-61
2020/12/07 05:10:41;;;;;;;5.63;3.93;;;;;;;4.14;95.53;94631.47;5074539;28;20829;-61
2020/12/07 05:13:59;;;;;;;5.23;4.73;;;;;;;4.14;95.87;94634.06;5054936;28;20540;-61
2020/12/07 05:15:53;;;;;;;5.67;4.30;;;;;;;4.14;94.90;94623.69;5065779;28;20471;-61
2020/12/07 05:18:18;;;;;;;4.37;3.97;;;;;;;4.14;96.09;94628.88;5074200;28;20440;-61
2020/12/07 05:20:43;;;;;;;4.63;4.17;;;;;;;4.14;95.32;94632.28;5074470;28;20451;-65
2020/12/07 05:23:14;;;;;;;5.80;4.17;;;;;;;4.10;96.06;94630.34;5074351;28;20182;-62
2020/12/07 05:25:43;;;;;;;4.47;4.07;;;;;;;4.26;95.95;94628.88;5073856;28;20176;-64
2020/12/07 05:28:11;;;;;;;4.33;3.97;;;;;;;4.04;96.69;94631.28;5073849;28;20416;-61
2020/12/07 05:30:42;;;;;;;6.53;4.33;;;;;;;4.24;95.74;94631.66;5073584;28;20930;-65
2020/12/07 05:33:08;;;;;;;6.67;4.50;;;;;;;4.26;95.15;94629.63;5074296;28;20983;-61
2020/12/07 05:35:38;;;;;;;4.60;4.20;;;;;;;4.23;96.05;94630.09;5073743;28;20510;-61
2020/12/07 05:38:05;;;;;;;4.87;4.47;;;;;;;4.30;95.36;94635.16;5073760;28;20180;-65
2020/12/07 05:40:31;;;;;;;6.83;4.23;;;;;;;4.40;94.80;94632.78;5073836;28;20435;-61
2020/12/07 05:42:58;;;;;;;4.80;4.40;;;;;;;4.38;94.80;94634.81;5073926;28;20929;-65
2020/12/07 05:45:24;;;;;;;4.77;4.37;;;;;;;4.20;95.50;94640.97;5073367;28;20413;-65
2020/12/07 05:47:52;;;;;;;5.90;4.47;;;;;;;4.50;94.80;94641.56;5073539;28;20411;-66
2020/12/07 05:50:19;;;;;;;6.77;4.40;;;;;;;4.32;94.36;94640.91;5072511;28;20443;-62
2020/12/07 05:52:53;;;;;;;7.07;4.43;;;;;;;4.46;94.09;94648.25;5073611;28;20452;-61
2020/12/07 05:55:20;;;;;;;4.70;4.27;;;;;;;4.40;95.12;94643.19;5074180;28;20458;-65
2020/12/07 05:58:05;;;;;;;5.90;4.60;;;;;;;4.26;95.05;94647.81;5073382;28;20479;-65
2020/12/07 06:00:35;;;;;;;5.07;4.53;;;;;;;4.26;95.19;94650.44;5073604;28;20488;-65
2020/12/07 06:03:03;;;;;;;4.97;4.47;;;;;;;4.37;94.87;94654.00;5073704;28;20482;-65
2020/12/07 06:05:29;;;;;;;4.63;4.20;;;;;;;4.58;94.05;94649.00;5073058;28;20423;-65
2020/12/07 06:08:09;;;;;;;5.10;4.60;;;;;;;4.33;94.61;94655.50;5073452;28;20905;-61
2020/12/07 06:10:40;;;;;;;5.00;4.50;;;;;;;4.50;94.36;94657.16;5072387;28;20434;-65
2020/12/07 06:13:12;;;;;;;4.97;4.47;;;;;;;4.40;94.55;94661.38;5073586;28;20438;-65
2020/12/07 06:15:52;;;;;;;5.47;4.93;;;;;;;4.51;94.13;94663.94;5073084;28;20421;-65
2020/12/07 06:18:33;;;;;;;5.60;4.30;;;;;;;4.54;93.23;94662.69;5071627;28;20425;-62
2020/12/07 06:21:05;;;;;;;5.30;4.57;;;;;;;4.51;92.92;94666.53;5053646;28;20413;-61
2020/12/07 06:23:40;;;;;;;5.30;4.67;;;;;;;4.39;93.61;94660.56;5053616;28;20488;-62
2020/12/07 06:26:07;;;;;;;5.50;4.33;;;;;;;4.49;93.57;94662.59;5063878;28;20420;-61
2020/12/07 06:28:41;;;;;;;6.60;5.70;;;;;;;4.64;93.07;94670.72;5073082;28;20861;-65
2020/12/07 06:31:16;;;;;;;9.60;5.27;;;;;;;4.64;92.01;94668.88;5073599;28;20407;-61
2020/12/07 06:33:53;;;;;;;7.00;4.83;;;;;;;4.76;92.47;94674.06;5072718;28;20449;-61
2020/12/07 06:36:35;;;;;;;11.83;5.40;;;;;;;4.56;93.00;94687.47;5073269;28;21015;-62
2020/12/07 06:39:04;;;;;;;6.57;4.90;;;;;;;4.53;92.82;94692.31;5073282;28;20484;-65
2020/12/07 06:41:41;;;;;;;13.60;5.20;;;;;;;4.34;93.35;94698.66;5072749;28;20425;-65
2020/12/07 06:44:12;;;;;;;6.77;4.80;;;;;;;4.34;93.82;94702.06;5073302;28;20422;-65
2020/12/07 06:47:12;;;;;;;7.40;4.63;;;;;;;4.18;93.87;94706.13;5072485;28;20423;-62
2020/12/07 06:52:28;;;;;;;7.13;4.77;;;;;;;4.33;93.99;94702.31;5073206;28;20420;-65
2020/12/07 06:55:10;;;;;;;5.77;5.20;;;;;;;4.35;93.52;94705.47;5073296;28;20848;-65
2020/12/07 06:57:44;;;;;;;5.20;4.60;;;;;;;4.47;92.65;94704.44;5076663;28;20447;-65
2020/12/07 07:00:11;;;;;;;7.40;5.87;;;;;;;4.61;92.71;94695.34;5076682;28;20443;-62
2020/12/07 07:02:42;;;;;;;6.30;5.23;;;;;;;4.81;92.01;94702.75;5077331;28;20457;-61
2020/12/07 07:05:08;;;;;;;7.20;5.97;;;;;;;4.60;91.90;94716.38;5076658;28;20427;-65
2020/12/07 07:07:34;;;;;;;7.03;5.33;;;;;;;4.51;92.84;94721.13;5076643;28;20410;-65
2020/12/07 07:10:00;;;;;;;9.33;6.00;;;;;;;4.56;91.64;94723.84;5076814;28;20942;-65
2020/12/07 07:12:26;;;;;;;6.93;5.90;;;;;;;4.57;91.49;94728.03;5076266;28;20503;-65
2020/12/07 07:14:53;;;;;;;5.87;5.27;;;;;;;4.64;91.80;94741.69;5076973;28;20203;-65
2020/12/07 07:17:25;;;;;;;6.37;5.77;;;;;;;4.61;92.04;94746.56;5076532;28;20412;-65
2020/12/07 07:19:51;;;;;;;6.63;6.00;;;;;;;4.62;91.95;94745.56;5077100;28;20448;-65
2020/12/07 07:22:16;;;;;;;8.30;6.53;;;;;;;4.77;91.55;94733.66;5076862;28;20964;-65
2020/12/07 07:24:49;;;;;;;7.70;6.90;;;;;;;4.85;91.06;94737.72;5076324;28;20173;-62
2020/12/07 07:29:58;;;;;;;7.13;6.43;;;;;;;4.76;91.69;94733.88;5076755;28;21020;-65
2020/12/07 07:32:24;;;;;;;8.27;6.67;;;;;;;4.82;92.19;94736.34;5076622;28;20499;-65
2020/12/07 07:34:49;;;;;;;9.37;7.10;;;;;;;4.79;91.73;94738.63;5076425;28;20293;-62
2020/12/07 07:37:16;;;;;;;9.03;6.83;;;;;;;4.63;92.84;94739.31;5075902;28;20246;-65
2020/12/07 07:39:42;;;;;;;9.23;7.57;;;;;;;4.54;92.69;94741.50;5076023;28;20679;-62
2020/12/07 07:42:16;;;;;;;7.10;6.40;;;;;;;4.49;93.10;94738.00;5075746;28;20423;-65
2020/12/07 07:44:48;;;;;;;7.50;6.70;;;;;;;4.38;93.99;94744.78;5075964;28;20426;-62
2020/12/07 07:47:44;;;;;;;7.90;6.07;;;;;;;4.35;94.45;94754.84;5075883;28;20435;-62
2020/12/07 08:17:28;;;;;;;7.50;6.80;;;;;;;5.39;89.29;94776.22;5058916;28;20453;-65
2020/12/07 08:20:06;;;;;;;8.10;6.03;;;;;;;5.28;91.23;94774.47;5075623;28;20443;-64
2020/12/07 08:22:32;;;;;;;7.00;6.30;;;;;;;5.50;89.84;94777.19;5075505;28;20201;-63
2020/12/07 08:25:02;;;;;;;7.30;6.47;;;;;;;5.34;89.84;94783.16;5074898;28;20909;-64
2020/12/07 08:27:32;;;;;;;6.00;5.47;;;;;;;5.24;90.65;94783.75;5075020;28;20224;-65
2020/12/07 08:30:07;;;;;;;6.00;5.40;;;;;;;5.23;90.77;94779.56;5075470;28;20436;-62
2020/12/07 08:32:33;;;;;;;6.33;5.17;;;;;;;5.17;90.90;94783.09;5075409;28;20507;-63
2020/12/07 08:35:00;;;;;;;6.00;5.40;;;;;;;5.23;91.07;94787.38;5074753;28;20522;-66
2020/12/07 08:37:26;;;;;;;5.77;5.27;;;;;;;4.97;91.57;94783.47;5075329;28;20417;-63
2020/12/07 08:39:52;;;;;;;5.30;4.80;;;;;;;4.97;91.97;94790.50;5063429;28;20445;-69
2020/12/07 08:42:18;;;;;;;5.30;4.80;;;;;;;4.93;92.58;94790.16;5061101;28;20775;-64
2020/12/07 08:44:44;;;;;;;6.50;4.93;;;;;;;4.97;92.48;94793.91;5074928;28;20431;-68
2020/12/07 08:47:10;;;;;;;5.73;5.23;;;;;;;5.18;91.24;94787.28;5074810;28;20888;-69
2020/12/07 08:49:36;;;;;;;4.53;4.13;;;;;;;5.24;92.54;94787.16;5074806;28;20200;-68
2020/12/07 08:52:02;;;;;;;5.80;5.20;;;;;;;5.42;90.54;94795.81;5074800;28;20929;-69
2020/12/07 08:54:28;;;;;;;4.73;4.30;;;;;;;5.35;90.84;94800.34;5074925;28;20456;-64
2020/12/07 08:56:53;;;;;;;5.00;4.50;;;;;;;5.34;90.79;94789.16;5074054;28;20481;-65
2020/12/07 08:59:18;;;;;;;5.50;5.00;;;;;;;5.34;91.90;94802.19;5074115;28;20255;-66
2020/12/07 09:01:44;;;;;;;5.03;4.63;;;;;;;5.35;91.34;94800.34;5073751;28;20182;-65
2020/12/07 09:04:11;;;;;;;5.00;4.53;;;;;;;5.53;91.19;94811.38;5074166;28;20203;-72
2020/12/07 09:06:40;;;;;;;6.20;4.93;;;;;;;5.68;90.61;94809.06;5074349;28;20376;-69
2020/12/07 09:09:09;;;;;;;5.00;4.50;;;;;;;5.67;89.48;94817.88;5074777;28;20439;-63
2020/12/07 09:11:35;;;;;;;4.60;4.20;;;;;;;5.92;90.18;94823.59;5073161;28;20542;-65
2020/12/07 09:14:02;;;;;;;5.00;4.50;;;;;;;6.01;87.85;94824.78;5071016;28;20448;-66
2020/12/07 09:16:28;;;;;;;5.57;5.07;;;;;;;6.30;88.19;94822.91;5070272;28;20452;-69
2020/12/07 09:18:53;;;;;;;4.67;4.00;;;;;;;6.19;88.00;94823.78;5070490;28;20483;-66
2020/12/07 09:21:19;;;;;;;4.40;4.00;;;;;;;6.27;86.87;94822.59;5070516;28;20257;-68
2020/12/07 09:23:44;;;;;;;4.73;4.33;;;;;;;6.53;86.55;94821.94;5070196;28;20274;-65
2020/12/07 09:26:09;;;;;;;4.50;4.10;;;;;;;6.90;85.04;94823.78;5070752;28;20697;-69
2020/12/07 09:28:36;;;;;;;6.00;4.00;;;;;;;6.78;84.38;94833.56;5070153;28;20191;-69
2020/12/07 09:31:05;;;;;;;4.03;3.57;;;;;;;7.04;83.41;94839.91;5070497;28;20167;-69
2020/12/07 09:33:31;;;;;;;3.80;3.50;;;;;;;6.75;83.25;94841.06;5070156;28;20517;-68
2020/12/07 09:35:56;;;;;;;4.00;3.57;;;;;;;7.06;83.43;94833.44;5069710;28;20412;-70
2020/12/07 09:38:22;;;;;;;4.67;4.10;;;;;;;7.52;81.47;94831.38;5070079;28;20418;-72
2020/12/07 09:40:47;;;;;;;4.47;4.13;;;;;;;7.60;79.63;94834.34;5070287;28;20545;-67
2020/12/07 09:43:13;;;;;;;3.93;3.63;;;;;;;7.76;80.04;94825.63;5060245;28;20889;-60
2020/12/07 09:45:38;;;;;;;5.80;3.97;;;;;;;7.74;79.97;94834.75;5074830;28;20658;-63
2020/12/07 09:48:03;;;;;;;4.30;4.00;;;;;;;7.90;79.08;94837.28;5069407;28;20609;-68
2020/12/07 09:50:29;;;;;;;4.73;4.33;;;;;;;7.77;80.08;94842.88;5070303;28;20196;-63
2020/12/07 09:52:55;;;;;;;4.50;4.10;;;;;;;7.63;82.12;94840.88;5070144;28;20172;-61
2020/12/07 09:55:22;;;;;;;4.87;4.40;;;;;;;7.16;83.19;94843.19;5069948;28;20260;-63
2020/12/07 09:57:48;;;;;;;4.50;4.00;;;;;;;7.28;84.27;94836.06;5069734;28;20180;-65
2020/12/07 10:00:13;;;;;;;6.67;4.83;;;;;;;7.14;84.58;94840.84;5069101;28;20444;-65
2020/12/07 10:02:39;;;;;;;4.60;4.20;;;;;;;6.43;86.48;94834.84;5069282;28;20172;-67
2020/12/07 10:05:05;;;;;;;3.97;3.67;;;;;;;6.25;87.83;94834.03;5069549;28;20664;-69
2020/12/07 10:07:31;;;;;;;4.20;3.90;;;;;;;6.28;88.35;94835.41;5069591;28;20175;-69
2020/12/07 10:09:56;;;;;;;4.57;4.17;;;;;;;6.41;88.42;94842.13;5069729;28;20934;-66
2020/12/07 10:12:22;;;;;;;4.90;3.90;;;;;;;6.29;87.10;94839.56;5069404;28;20186;-63
2020/12/07 10:14:47;;;;;;;4.03;3.73;;;;;;;6.27;87.59;94833.03;5069442;28;20251;-66
2020/12/07 10:17:12;;;;;;;4.07;3.77;;;;;;;6.23;86.29;94836.09;5067901;28;20328;-65
2020/12/07 10:19:38;;;;;;;4.60;4.20;;;;;;;6.52;86.39;94831.63;5069683;28;20191;-63
2020/12/07 10:22:07;;;;;;;3.40;3.10;;;;;;;6.50;84.26;94835.47;5069374;28;20178;-65
2020/12/07 10:24:33;;;;;;;3.77;3.47;;;;;;;6.60;85.61;94831.19;5068201;28;20178;-63
2020/12/07 10:26:59;;;;;;;4.73;4.33;;;;;;;6.49;86.26;94826.84;5069331;28;20526;-67
2020/12/07 10:29:25;;;;;;;4.33;3.90;;;;;;;6.91;86.99;94829.81;5069575;28;20436;-67
2020/12/07 10:31:51;;;;;;;4.87;4.30;;;;;;;7.10;86.23;94836.34;5068581;28;20973;-63
2020/12/07 10:34:16;;;;;;;4.40;4.00;;;;;;;7.03;84.42;94833.91;5069566;28;20207;-62
2020/12/07 10:36:48;;;;;;;4.00;3.70;;;;;;;7.09;83.20;94824.31;5068226;28;20244;-67
2020/12/07 10:39:13;;;;;;;4.77;4.37;;;;;;;6.95;85.26;94833.53;5069431;28;20205;-67
2020/12/07 10:41:39;;;;;;;4.77;4.37;;;;;;;6.92;84.78;94823.56;5069575;28;20780;-69
2020/12/07 10:44:04;;;;;;;5.10;4.70;;;;;;;7.10;84.73;94831.91;5069592;28;20446;-60
2020/12/07 10:46:30;;;;;;;5.83;4.20;;;;;;;7.54;83.65;94826.66;5069111;28;20167;-64
2020/12/07 10:48:55;;;;;;;5.67;5.23;;;;;;;7.95;82.77;94819.00;5067757;28;20290;-67
2020/12/07 10:51:20;;;;;;;4.27;3.97;;;;;;;8.14;80.80;94816.84;5069214;28;20180;-66
2020/12/07 10:53:46;;;;;;;4.03;3.63;;;;;;;7.86;79.63;94830.94;5069327;28;20191;-66
2020/12/07 10:56:14;;;;;;;3.80;3.50;;;;;;;8.02;78.27;94830.09;5069300;28;20171;-72
2020/12/07 10:58:40;;;;;;;3.80;3.50;;;;;;;8.04;77.71;94832.44;5072393;28;20539;-73
2020/12/07 11:01:06;;;;;;;4.20;3.90;;;;;;;7.50;80.54;94836.06;5072730;28;20425;-74
2020/12/07 11:03:31;;;;;;;4.47;4.10;;;;;;;7.57;80.78;94837.44;5072284;28;20417;-72
2020/12/07 11:05:57;;;;;;;5.27;4.73;;;;;;;7.94;79.33;94842.78;5072768;28;20908;-62
2020/12/07 11:08:34;;;;;;;4.67;4.27;;;;;;;7.87;79.28;94839.59;5072372;28;20175;-62
2020/12/07 11:11:00;;;;;;;5.03;4.50;;;;;;;8.02;78.69;94855.44;5072519;28;20180;-63
2020/12/07 11:13:31;;;;;;;4.97;4.57;;;;;;;7.85;79.21;94850.28;5072357;28;20454;-72
2020/12/07 11:16:04;;;;;;;4.80;4.40;;;;;;;7.63;80.30;94856.56;5072809;28;20257;-62
2020/12/07 11:18:32;;;;;;;5.00;4.47;;;;;;;7.77;80.88;94848.09;5072484;28;20406;-72
2020/12/07 11:20:58;;;;;;;4.53;4.13;;;;;;;8.12;80.19;94843.25;5071465;28;20523;-62
2020/12/07 11:23:23;;;;;;;4.83;4.37;;;;;;;8.16;78.23;94846.16;5070831;28;20505;-65
2020/12/07 11:25:50;;;;;;;5.47;4.97;;;;;;;8.43;77.17;94840.91;5072311;28;20169;-67
2020/12/07 11:28:15;;;;;;;4.90;4.40;;;;;;;8.07;77.42;94847.63;5069752;28;20551;-68
2020/12/07 11:30:41;;;;;;;4.57;4.17;;;;;;;8.02;76.66;94843.16;5072529;28;20451;-68
2020/12/07 11:33:06;;;;;;;4.30;4.00;;;;;;;8.06;77.51;94851.31;5071199;28;20566;-64
2020/12/07 11:35:32;;;;;;;4.33;3.93;;;;;;;7.97;77.41;94837.09;5071074;28;20180;-69
2020/12/07 11:38:03;;;;;;;3.70;3.40;;;;;;;7.48;77.40;94845.97;5052074;28;20205;-65
2020/12/07 11:43:06;;;;;;;4.10;3.80;;;;;;;7.25;78.80;94841.75;5071195;28;20424;-71
2020/12/07 11:45:31;;;;;;;4.07;3.77;;;;;;;7.13;79.85;94841.88;5076443;28;20170;-63
2020/12/07 11:47:56;;;;;;;4.20;3.80;;;;;;;7.43;79.49;94848.50;5075608;28;20472;-63
2020/12/07 11:50:22;;;;;;;4.97;4.50;;;;;;;7.41;79.19;94845.34;5075837;28;20193;-63
2020/12/07 11:52:47;;;;;;;3.53;3.23;;;;;;;6.47;81.35;94851.63;5076323;28;20641;-71
2020/12/07 11:55:12;;;;;;;5.37;3.63;;;;;;;5.99;82.53;94850.31;5070691;28;20310;-70
2020/12/07 11:57:38;;;;;;;3.60;3.30;;;;;;;6.39;82.68;94849.38;5071795;28;20585;-67
2020/12/07 12:00:04;;;;;;;4.03;3.73;;;;;;;6.24;84.04;94850.72;5071791;28;20203;-65
2020/12/07 12:02:29;;;;;;;3.90;3.50;;;;;;;6.21;84.54;94850.41;5072211;28;20179;-70
2020/12/07 12:04:54;;;;;;;5.30;4.27;;;;;;;6.46;83.67;94844.81;5072094;28;20183;-69
2020/12/07 12:07:20;;;;;;;5.30;3.40;;;;;;;6.28;83.81;94839.81;5071662;28;20171;-63
2020/12/07 12:09:45;;;;;;;4.73;4.33;;;;;;;6.61;81.43;94838.00;5071766;28;20199;-71
2020/12/07 12:12:11;;;;;;;4.20;3.90;;;;;;;6.47;80.88;94835.97;5071289;28;20269;-61
2020/12/07 12:14:36;;;;;;;3.20;3.00;;;;;;;6.56;81.07;94835.31;5071262;28;20248;-70
2020/12/07 12:17:01;;;;;;;2.97;2.60;;;;;;;6.41;79.51;94840.31;5070908;28;20182;-64